Terminal Aerodrome Forecast
Issued by NWS Albuquerque, NM

Home | Current Version | Previous Version | Text Only | Print | Product List | Glossary On
Versions: 1 2 3 4 5 6 7 8 9 10 11 12 13
000
FTUS45 KABQ 301120
TAFABQ
TAF
KABQ 301120Z 3012/3112 14005KT P6SM SCT250
     FM301800 23009KT P6SM SCT200
     FM302100 24015G25KT P6SM BKN200
     FM310200 20011KT P6SM BKN200
     FM310600 15009KT P6SM BKN150=

USA.gov is the U.S. government's official web portal to all federal, state and local government web resources and services.